sensor_id;sensor_type;location;lat;lon;timestamp;pressure;altitude;pressure_sealevel;temperature;humidity
29239;BME280;16267;48.194;11.546;2022-12-16T00:02:19;94398.25;;;1.32;99.61
29239;BME280;16267;48.194;11.546;2022-12-16T00:04:45;94406.94;;;1.33;99.10
29239;BME280;16267;48.194;11.546;2022-12-16T00:07:11;94407.72;;;1.33;99.56
29239;BME280;16267;48.194;11.546;2022-12-16T00:09:36;94403.94;;;1.34;99.09
29239;BME280;16267;48.194;11.546;2022-12-16T00:12:03;94402.03;;;1.35;99.43
29239;BME280;16267;48.194;11.546;2022-12-16T00:14:28;94402.03;;;1.35;99.07
29239;BME280;16267;48.194;11.546;2022-12-16T00:16:54;94403.94;;;1.34;98.67
29239;BME280;16267;48.194;11.546;2022-12-16T00:19:20;94402.78;;;1.36;98.77
29239;BME280;16267;48.194;11.546;2022-12-16T00:21:45;94400.16;;;1.36;98.78
29239;BME280;16267;48.194;11.546;2022-12-16T00:24:11;94399.41;;;1.35;99.11
29239;BME280;16267;48.194;11.546;2022-12-16T00:26:37;94400.91;;;1.36;98.65
29239;BME280;16267;48.194;11.546;2022-12-16T00:29:03;94402.41;;;1.37;98.77
29239;BME280;16267;48.194;11.546;2022-12-16T00:31:32;94399.78;;;1.37;98.85
29239;BME280;16267;48.194;11.546;2022-12-16T00:33:57;94404.31;;;1.37;98.56
29239;BME280;16267;48.194;11.546;2022-12-16T00:36:24;94409.22;;;1.38;98.64
29239;BME280;16267;48.194;11.546;2022-12-16T00:38:51;94403.16;;;1.38;98.47
29239;BME280;16267;48.194;11.546;2022-12-16T00:41:17;94402.06;;;1.39;98.78
29239;BME280;16267;48.194;11.546;2022-12-16T00:43:43;94410.72;;;1.39;98.52
29239;BME280;16267;48.194;11.546;2022-12-16T00:46:09;94402.81;;;1.39;98.18
29239;BME280;16267;48.194;11.546;2022-12-16T00:48:35;94402.81;;;1.39;98.48
29239;BME280;16267;48.194;11.546;2022-12-16T00:51:00;94400.91;;;1.40;98.46
29239;BME280;16267;48.194;11.546;2022-12-16T00:53:26;94411.09;;;1.41;98.43
29239;BME280;16267;48.194;11.546;2022-12-16T00:56:05;94406.19;;;1.40;98.13
29239;BME280;16267;48.194;11.546;2022-12-16T00:58:32;94410.34;;;1.41;98.23
29239;BME280;16267;48.194;11.546;2022-12-16T01:00:57;94417.91;;;1.42;98.62
29239;BME280;16267;48.194;11.546;2022-12-16T01:03:23;94419.41;;;1.43;98.27
29239;BME280;16267;48.194;11.546;2022-12-16T01:05:49;94423.19;;;1.42;98.74
29239;BME280;16267;48.194;11.546;2022-12-16T01:08:15;94423.94;;;1.43;98.13
29239;BME280;16267;48.194;11.546;2022-12-16T01:10:41;94442.09;;;1.44;98.17
29239;BME280;16267;48.194;11.546;2022-12-16T01:13:07;94444.72;;;1.44;98.52
29239;BME280;16267;48.194;11.546;2022-12-16T01:15:32;94444.34;;;1.46;98.21
29239;BME280;16267;48.194;11.546;2022-12-16T01:17:58;94448.88;;;1.45;97.97
29239;BME280;16267;48.194;11.546;2022-12-16T01:20:24;94451.13;;;1.47;98.24
29239;BME280;16267;48.194;11.546;2022-12-16T01:22:50;94462.09;;;1.49;98.16
29239;BME280;16267;48.194;11.546;2022-12-16T01:25:15;94461.34;;;1.48;97.70
29239;BME280;16267;48.194;11.546;2022-12-16T01:27:42;94454.16;;;1.49;97.72
29239;BME280;16267;48.194;11.546;2022-12-16T01:30:09;94458.69;;;1.48;97.64
29239;BME280;16267;48.194;11.546;2022-12-16T01:32:35;94456.44;;;1.50;97.67
29239;BME280;16267;48.194;11.546;2022-12-16T01:35:01;94459.06;;;1.50;97.30
29239;BME280;16267;48.194;11.546;2022-12-16T01:37:27;94462.47;;;1.51;97.55
29239;BME280;16267;48.194;11.546;2022-12-16T01:39:53;94457.19;;;1.51;97.39
29239;BME280;16267;48.194;11.546;2022-12-16T01:42:21;94462.47;;;1.51;97.48
29239;BME280;16267;48.194;11.546;2022-12-16T01:44:49;94463.22;;;1.51;97.47
29239;BME280;16267;48.194;11.546;2022-12-16T01:47:29;94460.56;;;1.51;97.38
29239;BME280;16267;48.194;11.546;2022-12-16T01:50:03;94464.75;;;1.52;97.43
29239;BME280;16267;48.194;11.546;2022-12-16T01:52:38;94462.09;;;1.52;97.20
29239;BME280;16267;48.194;11.546;2022-12-16T01:55:11;94457.56;;;1.53;97.43
29239;BME280;16267;48.194;11.546;2022-12-16T01:57:47;94464.34;;;1.54;97.24
29239;BME280;16267;48.194;11.546;2022-12-16T02:00:14;94460.97;;;1.53;96.77
29239;BME280;16267;48.194;11.546;2022-12-16T02:02:42;94459.81;;;1.54;96.69
29239;BME280;16267;48.194;11.546;2022-12-16T02:05:10;94453.03;;;1.53;96.87
29239;BME280;16267;48.194;11.546;2022-12-16T02:16:38;94459.81;;;1.54;96.60
29239;BME280;16267;48.194;11.546;2022-12-16T02:31:59;94478.31;;;1.54;95.84
29239;BME280;16267;48.194;11.546;2022-12-16T02:37:37;94488.91;;;1.54;95.89
29239;BME280;16267;48.194;11.546;2022-12-16T02:40:22;94484.00;;;1.53;96.29
29239;BME280;16267;48.194;11.546;2022-12-16T02:42:56;94494.19;;;1.54;95.98
29239;BME280;16267;48.194;11.546;2022-12-16T02:45:28;94495.34;;;1.53;95.96
29239;BME280;16267;48.194;11.546;2022-12-16T02:47:55;94494.59;;;1.53;95.78
29239;BME280;16267;48.194;11.546;2022-12-16T02:50:32;94500.25;;;1.51;95.72
29239;BME280;16267;48.194;11.546;2022-12-16T02:52:58;94504.78;;;1.51;95.24
29239;BME280;16267;48.194;11.546;2022-12-16T03:04:19;94519.88;;;1.47;94.51
29239;BME280;16267;48.194;11.546;2022-12-16T03:06:48;94525.16;;;1.47;94.60
29239;BME280;16267;48.194;11.546;2022-12-16T03:09:21;94531.22;;;1.47;94.43
29239;BME280;16267;48.194;11.546;2022-12-16T03:11:48;94527.81;;;1.47;94.42
29239;BME280;16267;48.194;11.546;2022-12-16T03:14:17;94536.88;;;1.46;94.20
29239;BME280;16267;48.194;11.546;2022-12-16T03:16:46;94528.56;;;1.44;94.08
29239;BME280;16267;48.194;11.546;2022-12-16T03:19:12;94531.19;;;1.44;93.78
29239;BME280;16267;48.194;11.546;2022-12-16T03:21:56;94528.94;;;1.42;93.61
29239;BME280;16267;48.194;11.546;2022-12-16T03:24:25;94527.06;;;1.43;93.59
29239;BME280;16267;48.194;11.546;2022-12-16T03:27:12;94528.94;;;1.42;94.04
29239;BME280;16267;48.194;11.546;2022-12-16T03:32:43;94527.06;;;1.39;93.36
29239;BME280;16267;48.194;11.546;2022-12-16T03:35:25;94513.84;;;1.39;93.56
29239;BME280;16267;48.194;11.546;2022-12-16T03:37:56;94526.31;;;1.39;93.62
29239;BME280;16267;48.194;11.546;2022-12-16T03:40:24;94523.66;;;1.39;93.09
29239;BME280;16267;48.194;11.546;2022-12-16T03:42:52;94526.66;;;1.37;93.38
29239;BME280;16267;48.194;11.546;2022-12-16T03:45:25;94527.03;;;1.36;92.98
29239;BME280;16267;48.194;11.546;2022-12-16T03:47:55;94535.75;;;1.36;93.52
29239;BME280;16267;48.194;11.546;2022-12-16T03:50:28;94536.84;;;1.35;93.29
29239;BME280;16267;48.194;11.546;2022-12-16T03:52:55;94545.94;;;1.34;93.26
29239;BME280;16267;48.194;11.546;2022-12-16T03:55:21;94543.28;;;1.34;92.79
29239;BME280;16267;48.194;11.546;2022-12-16T03:57:47;94543.28;;;1.34;92.79
29239;BME280;16267;48.194;11.546;2022-12-16T04:00:13;94547.81;;;1.33;93.20
29239;BME280;16267;48.194;11.546;2022-12-16T04:02:40;94548.19;;;1.32;92.97
29239;BME280;16267;48.194;11.546;2022-12-16T04:05:06;94545.53;;;1.32;92.46
29239;BME280;16267;48.194;11.546;2022-12-16T04:07:32;94544.03;;;1.31;92.49
29239;BME280;16267;48.194;11.546;2022-12-16T04:09:58;94548.53;;;1.27;91.29
29239;BME280;16267;48.194;11.546;2022-12-16T04:12:24;94555.72;;;1.26;91.63
29239;BME280;16267;48.194;11.546;2022-12-16T04:15:09;94565.53;;;1.26;91.73
29239;BME280;16267;48.194;11.546;2022-12-16T04:17:53;94569.69;;;1.23;90.96
29239;BME280;16267;48.194;11.546;2022-12-16T04:20:45;94578.75;;;1.22;91.93
29239;BME280;16267;48.194;11.546;2022-12-16T04:23:31;94586.69;;;1.22;91.90
29239;BME280;16267;48.194;11.546;2022-12-16T04:26:17;94591.59;;;1.20;91.77
29239;BME280;16267;48.194;11.546;2022-12-16T04:28:44;94590.84;;;1.20;91.65
29239;BME280;16267;48.194;11.546;2022-12-16T04:31:10;94591.59;;;1.20;91.75
29239;BME280;16267;48.194;11.546;2022-12-16T04:33:35;94588.19;;;1.20;91.74
29239;BME280;16267;48.194;11.546;2022-12-16T04:36:20;94601.41;;;1.20;92.01
29239;BME280;16267;48.194;11.546;2022-12-16T04:39:04;94598.75;;;1.20;91.93
29239;BME280;16267;48.194;11.546;2022-12-16T04:41:53;94596.47;;;1.18;92.04
29239;BME280;16267;48.194;11.546;2022-12-16T04:44:38;94607.81;;;1.19;91.82
29239;BME280;16267;48.194;11.546;2022-12-16T04:47:33;94622.91;;;1.18;91.64
29239;BME280;16267;48.194;11.546;2022-12-16T04:50:17;94620.66;;;1.17;91.26
29239;BME280;16267;48.194;11.546;2022-12-16T04:53:16;94617.63;;;1.15;91.06
29239;BME280;16267;48.194;11.546;2022-12-16T04:56:00;94625.53;;;1.15;91.59
29239;BME280;16267;48.194;11.546;2022-12-16T04:58:45;94621.38;;;1.14;90.92
29239;BME280;16267;48.194;11.546;2022-12-16T05:01:29;94633.47;;;1.11;90.75
29239;BME280;16267;48.194;11.546;2022-12-16T05:04:14;94634.56;;;1.10;91.19
29239;BME280;16267;48.194;11.546;2022-12-16T05:06:58;94648.94;;;1.09;90.40
29239;BME280;16267;48.194;11.546;2022-12-16T05:09:42;94649.66;;;1.06;90.58
29239;BME280;16267;48.194;11.546;2022-12-16T05:12:27;94654.16;;;1.02;89.23
29239;BME280;16267;48.194;11.546;2022-12-16T05:15:11;94657.94;;;0.97;88.41
29239;BME280;16267;48.194;11.546;2022-12-16T05:17:58;94658.28;;;0.96;89.33
29239;BME280;16267;48.194;11.546;2022-12-16T05:20:42;94656.00;;;0.94;89.68
29239;BME280;16267;48.194;11.546;2022-12-16T05:23:26;94657.88;;;0.90;88.95
29239;BME280;16267;48.194;11.546;2022-12-16T05:26:11;94667.31;;;0.87;89.11
29239;BME280;16267;48.194;11.546;2022-12-16T05:28:55;94668.06;;;0.88;89.63
29239;BME280;16267;48.194;11.546;2022-12-16T05:31:40;94667.31;;;0.87;89.74
29239;BME280;16267;48.194;11.546;2022-12-16T05:34:24;94669.19;;;0.87;90.37
29239;BME280;16267;48.194;11.546;2022-12-16T05:37:08;94672.59;;;0.87;90.50
29239;BME280;16267;48.194;11.546;2022-12-16T05:39:52;94668.06;;;0.88;90.32
29239;BME280;16267;48.194;11.546;2022-12-16T05:42:37;94673.34;;;0.88;90.59
29239;BME280;16267;48.194;11.546;2022-12-16T05:45:21;94677.88;;;0.87;90.38
29239;BME280;16267;48.194;11.546;2022-12-16T05:48:05;94681.28;;;0.88;90.36
29239;BME280;16267;48.194;11.546;2022-12-16T05:50:50;94675.22;;;0.87;90.37
29239;BME280;16267;48.194;11.546;2022-12-16T05:53:34;94699.00;;;0.87;90.03
29239;BME280;16267;48.194;11.546;2022-12-16T05:56:19;94694.47;;;0.84;89.49
29239;BME280;16267;48.194;11.546;2022-12-16T05:59:03;94695.22;;;0.85;90.01
29239;BME280;16267;48.194;11.546;2022-12-16T06:01:48;94703.88;;;0.82;89.31
29239;BME280;16267;48.194;11.546;2022-12-16T06:04:32;94711.41;;;0.80;88.84
29239;BME280;16267;48.194;11.546;2022-12-16T06:07:16;94712.53;;;0.79;88.97
29239;BME280;16267;48.194;11.546;2022-12-16T06:10:01;94714.44;;;0.78;89.38
29239;BME280;16267;48.194;11.546;2022-12-16T06:12:46;94718.97;;;0.78;89.53
29239;BME280;16267;48.194;11.546;2022-12-16T06:15:31;94713.28;;;0.76;89.46
29239;BME280;16267;48.194;11.546;2022-12-16T06:18:23;94725.72;;;0.75;89.72
29239;BME280;16267;48.194;11.546;2022-12-16T06:21:08;94731.00;;;0.75;89.65
29239;BME280;16267;48.194;11.546;2022-12-16T06:23:52;94735.91;;;0.77;89.83
29239;BME280;16267;48.194;11.546;2022-12-16T06:26:36;94731.38;;;0.74;89.79
29239;BME280;16267;48.194;11.546;2022-12-16T06:29:21;94728.72;;;0.74;89.52
29239;BME280;16267;48.194;11.546;2022-12-16T06:32:05;94734.00;;;0.74;89.81
29239;BME280;16267;48.194;11.546;2022-12-16T06:34:50;94747.59;;;0.72;88.93
29239;BME280;16267;48.194;11.546;2022-12-16T06:37:34;94753.97;;;0.71;89.64
29239;BME280;16267;48.194;11.546;2022-12-16T06:40:18;94764.94;;;0.70;89.07
29239;BME280;16267;48.194;11.546;2022-12-16T06:43:03;94773.97;;;0.69;89.07
29239;BME280;16267;48.194;11.546;2022-12-16T06:45:48;94773.94;;;0.65;88.03
29239;BME280;16267;48.194;11.546;2022-12-16T06:48:32;94775.06;;;0.64;88.74
29239;BME280;16267;48.194;11.546;2022-12-16T06:51:16;94773.53;;;0.63;89.41
29239;BME280;16267;48.194;11.546;2022-12-16T06:54:02;94777.31;;;0.62;89.03
29239;BME280;16267;48.194;11.546;2022-12-16T06:56:46;94774.66;;;0.62;89.64
29239;BME280;16267;48.194;11.546;2022-12-16T06:59:31;94784.84;;;0.60;88.50
29239;BME280;16267;48.194;11.546;2022-12-16T07:02:15;94785.97;;;0.59;89.36
29239;BME280;16267;48.194;11.546;2022-12-16T07:04:59;94795.38;;;0.60;89.51
29239;BME280;16267;48.194;11.546;2022-12-16T07:07:51;94796.53;;;0.59;89.65
29239;BME280;16267;48.194;11.546;2022-12-16T07:10:36;94800.28;;;0.58;88.44
29239;BME280;16267;48.194;11.546;2022-12-16T07:13:20;94812.72;;;0.57;89.15
29239;BME280;16267;48.194;11.546;2022-12-16T07:16:05;94821.03;;;0.56;89.37
29239;BME280;16267;48.194;11.546;2022-12-16T07:18:49;94824.41;;;0.56;89.80
29239;BME280;16267;48.194;11.546;2022-12-16T07:21:33;94834.22;;;0.56;89.54
29239;BME280;16267;48.194;11.546;2022-12-16T07:24:17;94837.63;;;0.56;89.62
29239;BME280;16267;48.194;11.546;2022-12-16T07:27:02;94840.25;;;0.56;89.38
29239;BME280;16267;48.194;11.546;2022-12-16T07:29:46;94851.91;;;0.55;88.93
29239;BME280;16267;48.194;11.546;2022-12-16T07:32:31;94854.56;;;0.55;89.64
29239;BME280;16267;48.194;11.546;2022-12-16T07:35:15;94848.94;;;0.57;89.97
29239;BME280;16267;48.194;11.546;2022-12-16T07:38:13;94847.81;;;0.58;89.91
29239;BME280;16267;48.194;11.546;2022-12-16T07:40:58;94848.59;;;0.58;89.74
29239;BME280;16267;48.194;11.546;2022-12-16T07:43:42;94865.91;;;0.56;88.93
29239;BME280;16267;48.194;11.546;2022-12-16T07:46:26;94873.81;;;0.56;88.72
29239;BME280;16267;48.194;11.546;2022-12-16T07:49:11;94874.19;;;0.54;89.37
29239;BME280;16267;48.194;11.546;2022-12-16T07:51:55;94874.94;;;0.55;89.53
29239;BME280;16267;48.194;11.546;2022-12-16T07:54:39;94886.25;;;0.55;90.04
29239;BME280;16267;48.194;11.546;2022-12-16T07:57:24;94893.06;;;0.56;90.08
29239;BME280;16267;48.194;11.546;2022-12-16T08:00:09;94892.31;;;0.56;89.53
29239;BME280;16267;48.194;11.546;2022-12-16T08:02:54;94902.50;;;0.57;90.09
29239;BME280;16267;48.194;11.546;2022-12-16T08:05:39;94900.22;;;0.56;89.25
29239;BME280;16267;48.194;11.546;2022-12-16T08:08:23;94898.34;;;0.56;89.53
29239;BME280;16267;48.194;11.546;2022-12-16T08:11:08;94904.72;;;0.55;88.98
29239;BME280;16267;48.194;11.546;2022-12-16T08:13:52;94910.72;;;0.52;88.25
29239;BME280;16267;48.194;11.546;2022-12-16T08:16:37;94907.34;;;0.52;88.63
29239;BME280;16267;48.194;11.546;2022-12-16T08:19:21;94911.88;;;0.51;88.82
29239;BME280;16267;48.194;11.546;2022-12-16T08:22:05;94916.78;;;0.53;89.05
29239;BME280;16267;48.194;11.546;2022-12-16T08:24:50;94917.88;;;0.48;88.21
29239;BME280;16267;48.194;11.546;2022-12-16T08:27:35;94921.66;;;0.51;90.02
29239;BME280;16267;48.194;11.546;2022-12-16T08:30:19;94923.94;;;0.52;89.54
29239;BME280;16267;48.194;11.546;2022-12-16T08:33:03;94928.88;;;0.54;89.43
29239;BME280;16267;48.194;11.546;2022-12-16T08:35:48;94937.19;;;0.56;89.42
29239;BME280;16267;48.194;11.546;2022-12-16T08:38:32;94938.72;;;0.57;89.35
29239;BME280;16267;48.194;11.546;2022-12-16T08:41:17;94942.47;;;0.56;88.29
29239;BME280;16267;48.194;11.546;2022-12-16T08:44:02;94946.28;;;0.58;88.92
29239;BME280;16267;48.194;11.546;2022-12-16T08:46:46;94955.72;;;0.59;89.39
29239;BME280;16267;48.194;11.546;2022-12-16T08:49:31;94950.03;;;0.57;88.05
29239;BME280;16267;48.194;11.546;2022-12-16T08:52:15;94959.09;;;0.60;88.98
29239;BME280;16267;48.194;11.546;2022-12-16T08:55:00;94955.72;;;0.59;88.66
29239;BME280;16267;48.194;11.546;2022-12-16T08:57:54;94966.69;;;0.61;88.57
29239;BME280;16267;48.194;11.546;2022-12-16T09:00:39;94967.44;;;0.62;88.87
29239;BME280;16267;48.194;11.546;2022-12-16T09:03:24;94976.13;;;0.62;87.80
29239;BME280;16267;48.194;11.546;2022-12-16T09:06:08;94968.94;;;0.63;87.78
29239;BME280;16267;48.194;11.546;2022-12-16T09:08:52;94979.50;;;0.63;88.07
29239;BME280;16267;48.194;11.546;2022-12-16T09:11:36;94977.59;;;0.60;87.02
29239;BME280;16267;48.194;11.546;2022-12-16T09:14:21;94987.03;;;0.61;88.30
29239;BME280;16267;48.194;11.546;2022-12-16T09:17:05;94989.66;;;0.61;88.61
29239;BME280;16267;48.194;11.546;2022-12-16T09:19:49;94996.09;;;0.63;88.92
29239;BME280;16267;48.194;11.546;2022-12-16T09:22:34;94996.91;;;0.64;88.71
29239;BME280;16267;48.194;11.546;2022-12-16T09:25:19;94999.16;;;0.65;88.95
29239;BME280;16267;48.194;11.546;2022-12-16T09:28:03;94999.13;;;0.62;88.53
29239;BME280;16267;48.194;11.546;2022-12-16T09:30:47;95007.03;;;0.62;88.78
29239;BME280;16267;48.194;11.546;2022-12-16T09:33:32;95013.09;;;0.62;88.93
29239;BME280;16267;48.194;11.546;2022-12-16T09:36:16;95024.41;;;0.63;88.87
29239;BME280;16267;48.194;11.546;2022-12-16T09:39:00;95018.03;;;0.64;89.17
29239;BME280;16267;48.194;11.546;2022-12-16T09:48:59;95031.25;;;0.68;89.32
29239;BME280;16267;48.194;11.546;2022-12-16T09:51:49;95036.13;;;0.65;88.83
29239;BME280;16267;48.194;11.546;2022-12-16T09:54:36;95043.31;;;0.65;88.76
29239;BME280;16267;48.194;11.546;2022-12-16T09:57:23;95046.66;;;0.62;88.27
29239;BME280;16267;48.194;11.546;2022-12-16T10:00:20;95045.50;;;0.59;88.63
29239;BME280;16267;48.194;11.546;2022-12-16T10:03:23;95049.66;;;0.60;89.61
29239;BME280;16267;48.194;11.546;2022-12-16T10:06:44;95051.53;;;0.60;88.56
29239;BME280;16267;48.194;11.546;2022-12-16T10:10:15;95053.72;;;0.54;88.41
29239;BME280;16267;48.194;11.546;2022-12-16T10:16:25;95054.13;;;0.56;88.98
29239;BME280;16267;48.194;11.546;2022-12-16T10:19:51;95068.09;;;0.57;88.21
29239;BME280;16267;48.194;11.546;2022-12-16T10:22:47;95065.88;;;0.59;88.76
29239;BME280;16267;48.194;11.546;2022-12-16T10:25:45;95071.50;;;0.57;88.10
29239;BME280;16267;48.194;11.546;2022-12-16T10:29:00;95065.50;;;0.60;88.40
29239;BME280;16267;48.194;11.546;2022-12-16T10:31:45;95072.66;;;0.60;87.94
29239;BME280;16267;48.194;11.546;2022-12-16T10:34:31;95074.16;;;0.61;87.53
29239;BME280;16267;48.194;11.546;2022-12-16T10:37:36;95073.81;;;0.62;88.40
29239;BME280;16267;48.194;11.546;2022-12-16T10:40:25;95076.44;;;0.59;86.60
29239;BME280;16267;48.194;11.546;2022-12-16T10:43:37;95083.91;;;0.53;88.25
29239;BME280;16267;48.194;11.546;2022-12-16T10:46:27;95082.34;;;0.52;87.73
29239;BME280;16267;48.194;11.546;2022-12-16T10:49:14;95088.41;;;0.53;87.58
29239;BME280;16267;48.194;11.546;2022-12-16T10:51:59;95089.19;;;0.53;87.60
29239;BME280;16267;48.194;11.546;2022-12-16T10:55:23;95094.81;;;0.52;87.04
29239;BME280;16267;48.194;11.546;2022-12-16T10:58:45;95088.06;;;0.54;88.70
29239;BME280;16267;48.194;11.546;2022-12-16T11:01:30;95093.75;;;0.56;87.94
29239;BME280;16267;48.194;11.546;2022-12-16T11:04:31;95100.19;;;0.59;88.33
29239;BME280;16267;48.194;11.546;2022-12-16T11:07:39;95091.84;;;0.57;86.79
29239;BME280;16267;48.194;11.546;2022-12-16T11:10:42;95087.34;;;0.57;87.30
29239;BME280;16267;48.194;11.546;2022-12-16T11:13:28;95095.25;;;0.57;86.52
29239;BME280;16267;48.194;11.546;2022-12-16T11:16:19;95105.06;;;0.57;86.60
29239;BME280;16267;48.194;11.546;2022-12-16T11:19:19;95103.13;;;0.54;86.94
29239;BME280;16267;48.194;11.546;2022-12-16T11:22:30;95105.03;;;0.53;86.76
29239;BME280;16267;48.194;11.546;2022-12-16T11:25:19;95107.25;;;0.51;85.55
29239;BME280;16267;48.194;11.546;2022-12-16T11:28:16;95100.84;;;0.52;87.23
29239;BME280;16267;48.194;11.546;2022-12-16T11:31:14;95105.78;;;0.54;87.62
29239;BME280;16267;48.194;11.546;2022-12-16T11:34:00;95112.53;;;0.51;86.20
29239;BME280;16267;48.194;11.546;2022-12-16T11:36:47;95110.66;;;0.52;86.76
29239;BME280;16267;48.194;11.546;2022-12-16T11:39:34;95106.91;;;0.53;87.15
29239;BME280;16267;48.194;11.546;2022-12-16T11:42:25;95105.06;;;0.57;88.15
29239;BME280;16267;48.194;11.546;2022-12-16T11:45:19;95099.78;;;0.57;87.12
29239;BME280;16267;48.194;11.546;2022-12-16T11:50:57;95105.41;;;0.55;87.69
29239;BME280;16267;48.194;11.546;2022-12-16T11:54:06;95111.84;;;0.58;87.73
29239;BME280;16267;48.194;11.546;2022-12-16T11:56:51;95110.00;;;0.58;87.17
29239;BME280;16267;48.194;11.546;2022-12-16T12:03:00;95122.41;;;0.58;86.19
29239;BME280;16267;48.194;11.546;2022-12-16T12:09:16;95126.94;;;0.57;86.70
29239;BME280;16267;48.194;11.546;2022-12-16T12:12:20;95140.56;;;0.59;87.10
29239;BME280;16267;48.194;11.546;2022-12-16T12:15:24;95133.81;;;0.62;87.42
29239;BME280;16267;48.194;11.546;2022-12-16T12:21:26;95133.44;;;0.63;86.85
29239;BME280;16267;48.194;11.546;2022-12-16T12:24:52;95128.53;;;0.62;86.68
29239;BME280;16267;48.194;11.546;2022-12-16T12:31:20;95133.81;;;0.62;85.13
29239;BME280;16267;48.194;11.546;2022-12-16T12:34:36;95144.00;;;0.63;85.97
29239;BME280;16267;48.194;11.546;2022-12-16T12:37:50;95147.06;;;0.65;86.57
29239;BME280;16267;48.194;11.546;2022-12-16T12:41:11;95152.00;;;0.67;85.72
29239;BME280;16267;48.194;11.546;2022-12-16T12:47:04;95153.53;;;0.72;84.68
29239;BME280;16267;48.194;11.546;2022-12-16T12:50:16;95158.13;;;0.75;85.88
29239;BME280;16267;48.194;11.546;2022-12-16T12:56:51;95161.53;;;0.75;85.46
29239;BME280;16267;48.194;11.546;2022-12-16T13:00:17;95158.50;;;0.73;85.39
29239;BME280;16267;48.194;11.546;2022-12-16T13:03:23;95169.00;;;0.70;84.85
29239;BME280;16267;48.194;11.546;2022-12-16T13:06:13;95172.41;;;0.70;85.84
29239;BME280;16267;48.194;11.546;2022-12-16T13:08:59;95169.00;;;0.70;85.74
29239;BME280;16267;48.194;11.546;2022-12-16T13:15:18;95181.63;;;0.57;85.19
29239;BME280;16267;48.194;11.546;2022-12-16T13:20:57;95186.59;;;0.58;86.28
29239;BME280;16267;48.194;11.546;2022-12-16T13:23:45;95181.59;;;0.53;84.96
29239;BME280;16267;48.194;11.546;2022-12-16T13:26:34;95188.75;;;0.53;86.02
29239;BME280;16267;48.194;11.546;2022-12-16T13:29:28;95195.50;;;0.50;84.33
29239;BME280;16267;48.194;11.546;2022-12-16T13:32:25;95204.09;;;0.47;85.15
29239;BME280;16267;48.194;11.546;2022-12-16T13:44:10;95228.81;;;0.35;84.64
29239;BME280;16267;48.194;11.546;2022-12-16T13:46:56;95231.59;;;0.19;84.66
29239;BME280;16267;48.194;11.546;2022-12-16T13:49:48;95236.78;;;0.16;86.38
29239;BME280;16267;48.194;11.546;2022-12-16T13:52:54;95239.78;;;0.14;86.47
29239;BME280;16267;48.194;11.546;2022-12-16T13:55:57;95244.97;;;0.11;85.89
29239;BME280;16267;48.194;11.546;2022-12-16T13:58:53;95253.06;;;-0.02;85.55
29239;BME280;16267;48.194;11.546;2022-12-16T14:01:57;95259.47;;;-0.03;86.74
29239;BME280;16267;48.194;11.546;2022-12-16T14:04:52;95257.22;;;-0.01;87.55
29239;BME280;16267;48.194;11.546;2022-12-16T14:07:38;95262.59;;;0.03;86.82
29239;BME280;16267;48.194;11.546;2022-12-16T14:10:26;95266.59;;;-0.03;86.10
29239;BME280;16267;48.194;11.546;2022-12-16T14:19:59;95281.06;;;-0.16;85.63
29239;BME280;16267;48.194;11.546;2022-12-16T14:26:19;95287.78;;;-0.19;86.37
29239;BME280;16267;48.194;11.546;2022-12-16T14:29:22;95294.25;;;-0.16;87.10
29239;BME280;16267;48.194;11.546;2022-12-16T14:32:32;95305.34;;;-0.27;85.51
29239;BME280;16267;48.194;11.546;2022-12-16T14:35:23;95317.78;;;-0.27;87.02
29239;BME280;16267;48.194;11.546;2022-12-16T14:38:27;95315.41;;;-0.32;86.75
29239;BME280;16267;48.194;11.546;2022-12-16T14:44:00;95329.34;;;-0.32;87.31
29239;BME280;16267;48.194;11.546;2022-12-16T14:46:52;95328.53;;;-0.36;87.79
29239;BME280;16267;48.194;11.546;2022-12-16T14:49:51;95329.28;;;-0.35;87.70
29239;BME280;16267;48.194;11.546;2022-12-16T14:52:38;95339.13;;;-0.32;87.84
29239;BME280;16267;48.194;11.546;2022-12-16T14:55:29;95341.78;;;-0.32;87.46
29239;BME280;16267;48.194;11.546;2022-12-16T14:58:19;95343.28;;;-0.31;87.42
29239;BME280;16267;48.194;11.546;2022-12-16T15:01:06;95344.66;;;-0.37;86.56
29239;BME280;16267;48.194;11.546;2022-12-16T15:03:56;95348.81;;;-0.36;87.24
29239;BME280;16267;48.194;11.546;2022-12-16T15:06:43;95357.03;;;-0.41;86.49
29239;BME280;16267;48.194;11.546;2022-12-16T15:12:22;95356.59;;;-0.43;87.87
29239;BME280;16267;48.194;11.546;2022-12-16T15:15:14;95352.72;;;-0.50;86.56
29239;BME280;16267;48.194;11.546;2022-12-16T15:17:59;95361.22;;;-0.56;87.88
29239;BME280;16267;48.194;11.546;2022-12-16T15:20:54;95371.00;;;-0.57;87.89
29239;BME280;16267;48.194;11.546;2022-12-16T15:23:48;95364.97;;;-0.57;87.65
29239;BME280;16267;48.194;11.546;2022-12-16T15:26:34;95374.38;;;-0.56;87.75
29239;BME280;16267;48.194;11.546;2022-12-16T15:29:40;95376.59;;;-0.58;87.44
29239;BME280;16267;48.194;11.546;2022-12-16T15:35:11;95393.19;;;-0.58;88.13
29239;BME280;16267;48.194;11.546;2022-12-16T15:38:17;95392.84;;;-0.56;88.70
29239;BME280;16267;48.194;11.546;2022-12-16T15:41:04;95400.06;;;-0.53;88.63
29239;BME280;16267;48.194;11.546;2022-12-16T15:43:50;95402.69;;;-0.53;88.28
29239;BME280;16267;48.194;11.546;2022-12-16T15:46:35;95417.75;;;-0.54;88.46
29239;BME280;16267;48.194;11.546;2022-12-16T15:49:34;95421.56;;;-0.51;88.68
29239;BME280;16267;48.194;11.546;2022-12-16T15:52:43;95424.22;;;-0.51;87.97
29239;BME280;16267;48.194;11.546;2022-12-16T15:55:35;95421.25;;;-0.50;87.65
29239;BME280;16267;48.194;11.546;2022-12-16T15:58:35;95419.97;;;-0.56;87.08
29239;BME280;16267;48.194;11.546;2022-12-16T16:01:25;95422.44;;;-0.63;87.57
29239;BME280;16267;48.194;11.546;2022-12-16T16:04:28;95426.44;;;-0.69;88.01
29239;BME280;16267;48.194;11.546;2022-12-16T16:07:23;95435.53;;;-0.66;89.12
29239;BME280;16267;48.194;11.546;2022-12-16T16:10:19;95435.19;;;-0.65;89.28
29239;BME280;16267;48.194;11.546;2022-12-16T16:13:05;95445.28;;;-0.67;88.48
29239;BME280;16267;48.194;11.546;2022-12-16T16:15:51;95444.53;;;-0.68;88.73